sensor_id;sensor_type;location;lat;lon;timestamp;P1;durP1;ratioP1;P2;durP2;ratioP2
57233;SDS011;43090;52.604;13.318;2023-11-21T00:00:40;22.20;;;9.18;;
57233;SDS011;43090;52.604;13.318;2023-11-21T00:03:10;29.30;;;11.32;;
57233;SDS011;43090;52.604;13.318;2023-11-21T00:05:40;29.02;;;10.23;;
57233;SDS011;43090;52.604;13.318;2023-11-21T00:08:10;26.83;;;10.75;;
57233;SDS011;43090;52.604;13.318;2023-11-21T00:10:43;43.15;;;11.70;;
57233;SDS011;43090;52.604;13.318;2023-11-21T00:13:13;34.75;;;11.38;;
57233;SDS011;43090;52.604;13.318;2023-11-21T00:15:39;35.03;;;11.68;;
57233;SDS011;43090;52.604;13.318;2023-11-21T00:18:09;31.13;;;12.55;;
57233;SDS011;43090;52.604;13.318;2023-11-21T00:20:36;33.22;;;11.43;;
57233;SDS011;43090;52.604;13.318;2023-11-21T00:25:30;29.95;;;11.65;;
57233;SDS011;43090;52.604;13.318;2023-11-21T00:27:58;34.80;;;11.30;;
57233;SDS011;43090;52.604;13.318;2023-11-21T00:30:27;31.90;;;11.98;;
57233;SDS011;43090;52.604;13.318;2023-11-21T00:32:55;42.97;;;12.48;;
57233;SDS011;43090;52.604;13.318;2023-11-21T00:35:25;30.85;;;11.55;;
57233;SDS011;43090;52.604;13.318;2023-11-21T00:40:18;31.20;;;10.88;;
57233;SDS011;43090;52.604;13.318;2023-11-21T00:42:54;31.38;;;11.88;;
57233;SDS011;43090;52.604;13.318;2023-11-21T00:45:22;36.22;;;10.88;;
57233;SDS011;43090;52.604;13.318;2023-11-21T00:47:49;32.40;;;12.38;;
57233;SDS011;43090;52.604;13.318;2023-11-21T00:50:21;35.05;;;12.07;;
57233;SDS011;43090;52.604;13.318;2023-11-21T00:52:55;36.78;;;14.02;;
57233;SDS011;43090;52.604;13.318;2023-11-21T00:55:24;47.50;;;15.52;;
57233;SDS011;43090;52.604;13.318;2023-11-21T00:58:01;45.08;;;13.98;;
57233;SDS011;43090;52.604;13.318;2023-11-21T01:00:39;37.58;;;13.73;;
57233;SDS011;43090;52.604;13.318;2023-11-21T01:03:08;54.45;;;16.25;;
57233;SDS011;43090;52.604;13.318;2023-11-21T01:05:46;44.97;;;14.40;;
57233;SDS011;43090;52.604;13.318;2023-11-21T01:10:44;34.63;;;13.55;;
57233;SDS011;43090;52.604;13.318;2023-11-21T01:13:14;43.42;;;13.75;;
57233;SDS011;43090;52.604;13.318;2023-11-21T01:15:43;53.20;;;13.32;;
57233;SDS011;43090;52.604;13.318;2023-11-21T01:18:10;36.30;;;13.80;;
57233;SDS011;43090;52.604;13.318;2023-11-21T01:20:37;37.40;;;13.50;;
57233;SDS011;43090;52.604;13.318;2023-11-21T01:23:05;30.33;;;12.82;;
57233;SDS011;43090;52.604;13.318;2023-11-21T01:25:35;29.48;;;11.13;;
57233;SDS011;43090;52.604;13.318;2023-11-21T01:28:03;28.60;;;11.00;;
57233;SDS011;43090;52.604;13.318;2023-11-21T01:30:30;29.80;;;11.25;;
57233;SDS011;43090;52.604;13.318;2023-11-21T01:32:59;37.33;;;12.88;;
57233;SDS011;43090;52.604;13.318;2023-11-21T01:35:26;27.15;;;11.60;;
57233;SDS011;43090;52.604;13.318;2023-11-21T01:37:55;27.50;;;10.90;;
57233;SDS011;43090;52.604;13.318;2023-11-21T01:40:26;30.48;;;11.55;;
57233;SDS011;43090;52.604;13.318;2023-11-21T01:43:02;23.63;;;10.80;;
57233;SDS011;43090;52.604;13.318;2023-11-21T01:45:35;23.83;;;10.57;;
57233;SDS011;43090;52.604;13.318;2023-11-21T01:48:04;23.50;;;10.90;;
57233;SDS011;43090;52.604;13.318;2023-11-21T01:50:35;26.15;;;10.93;;
57233;SDS011;43090;52.604;13.318;2023-11-21T01:53:05;26.15;;;9.60;;
57233;SDS011;43090;52.604;13.318;2023-11-21T01:55:40;18.92;;;8.98;;
57233;SDS011;43090;52.604;13.318;2023-11-21T01:58:11;18.60;;;8.50;;
57233;SDS011;43090;52.604;13.318;2023-11-21T02:00:45;17.55;;;8.23;;
57233;SDS011;43090;52.604;13.318;2023-11-21T02:03:12;14.32;;;8.30;;
57233;SDS011;43090;52.604;13.318;2023-11-21T02:05:39;20.95;;;9.80;;
57233;SDS011;43090;52.604;13.318;2023-11-21T02:08:10;20.30;;;8.68;;
57233;SDS011;43090;52.604;13.318;2023-11-21T02:10:37;17.63;;;9.18;;
57233;SDS011;43090;52.604;13.318;2023-11-21T02:13:04;14.45;;;8.68;;
57233;SDS011;43090;52.604;13.318;2023-11-21T02:15:34;14.52;;;8.68;;
57233;SDS011;43090;52.604;13.318;2023-11-21T02:18:10;21.48;;;8.68;;
57233;SDS011;43090;52.604;13.318;2023-11-21T02:20:37;17.85;;;9.10;;
57233;SDS011;43090;52.604;13.318;2023-11-21T02:23:08;16.60;;;8.77;;
57233;SDS011;43090;52.604;13.318;2023-11-21T02:25:35;21.90;;;10.13;;
57233;SDS011;43090;52.604;13.318;2023-11-21T02:28:04;15.13;;;8.15;;
57233;SDS011;43090;52.604;13.318;2023-11-21T02:30:31;19.38;;;9.02;;
57233;SDS011;43090;52.604;13.318;2023-11-21T02:47:26;23.02;;;9.85;;
57233;SDS011;43090;52.604;13.318;2023-11-21T02:50:10;15.88;;;9.52;;
57233;SDS011;43090;52.604;13.318;2023-11-21T02:52:41;20.75;;;9.65;;
57233;SDS011;43090;52.604;13.318;2023-11-21T02:55:32;18.58;;;10.43;;
57233;SDS011;43090;52.604;13.318;2023-11-21T02:58:13;18.40;;;9.93;;
57233;SDS011;43090;52.604;13.318;2023-11-21T03:00:43;19.63;;;9.63;;
57233;SDS011;43090;52.604;13.318;2023-11-21T03:03:16;20.98;;;10.88;;
57233;SDS011;43090;52.604;13.318;2023-11-21T03:05:45;17.88;;;9.77;;
57233;SDS011;43090;52.604;13.318;2023-11-21T03:08:20;20.52;;;10.23;;
57233;SDS011;43090;52.604;13.318;2023-11-21T03:10:47;19.10;;;10.27;;
57233;SDS011;43090;52.604;13.318;2023-11-21T03:13:14;23.70;;;9.55;;
57233;SDS011;43090;52.604;13.318;2023-11-21T03:15:41;18.92;;;9.68;;
57233;SDS011;43090;52.604;13.318;2023-11-21T03:18:11;18.80;;;9.18;;
57233;SDS011;43090;52.604;13.318;2023-11-21T03:20:45;16.25;;;8.35;;
57233;SDS011;43090;52.604;13.318;2023-11-21T03:23:15;16.75;;;9.10;;
57233;SDS011;43090;52.604;13.318;2023-11-21T03:28:09;18.83;;;8.52;;
57233;SDS011;43090;52.604;13.318;2023-11-21T03:30:36;16.60;;;8.85;;
57233;SDS011;43090;52.604;13.318;2023-11-21T03:33:06;20.48;;;9.05;;
57233;SDS011;43090;52.604;13.318;2023-11-21T03:35:42;19.92;;;10.20;;
57233;SDS011;43090;52.604;13.318;2023-11-21T03:38:12;17.75;;;9.13;;
57233;SDS011;43090;52.604;13.318;2023-11-21T03:40:39;19.77;;;9.32;;
57233;SDS011;43090;52.604;13.318;2023-11-21T03:43:06;21.30;;;9.63;;
57233;SDS011;43090;52.604;13.318;2023-11-21T03:45:33;21.77;;;9.70;;
57233;SDS011;43090;52.604;13.318;2023-11-21T03:48:00;16.73;;;8.85;;
57233;SDS011;43090;52.604;13.318;2023-11-21T03:50:28;18.08;;;9.15;;
57233;SDS011;43090;52.604;13.318;2023-11-21T03:52:56;21.08;;;10.40;;
57233;SDS011;43090;52.604;13.318;2023-11-21T03:55:23;18.80;;;10.15;;
57233;SDS011;43090;52.604;13.318;2023-11-21T03:57:51;23.92;;;9.60;;
57233;SDS011;43090;52.604;13.318;2023-11-21T04:00:19;20.00;;;9.35;;
57233;SDS011;43090;52.604;13.318;2023-11-21T04:02:49;20.75;;;10.20;;
57233;SDS011;43090;52.604;13.318;2023-11-21T04:05:19;22.10;;;10.60;;
57233;SDS011;43090;52.604;13.318;2023-11-21T04:07:50;16.58;;;9.40;;
57233;SDS011;43090;52.604;13.318;2023-11-21T04:10:18;15.77;;;8.25;;
57233;SDS011;43090;52.604;13.318;2023-11-21T04:12:50;16.23;;;8.73;;
57233;SDS011;43090;52.604;13.318;2023-11-21T04:15:17;15.95;;;8.45;;
57233;SDS011;43090;52.604;13.318;2023-11-21T04:17:44;21.10;;;9.60;;
57233;SDS011;43090;52.604;13.318;2023-11-21T04:20:13;17.67;;;9.48;;
57233;SDS011;43090;52.604;13.318;2023-11-21T04:22:42;18.02;;;9.32;;
57233;SDS011;43090;52.604;13.318;2023-11-21T04:25:20;16.13;;;8.00;;
57233;SDS011;43090;52.604;13.318;2023-11-21T04:27:47;18.75;;;9.43;;
57233;SDS011;43090;52.604;13.318;2023-11-21T04:30:14;20.02;;;9.27;;
57233;SDS011;43090;52.604;13.318;2023-11-21T04:32:42;17.83;;;9.15;;
57233;SDS011;43090;52.604;13.318;2023-11-21T04:35:10;22.27;;;9.63;;
57233;SDS011;43090;52.604;13.318;2023-11-21T04:37:39;19.50;;;9.10;;
57233;SDS011;43090;52.604;13.318;2023-11-21T04:40:06;19.38;;;9.68;;
57233;SDS011;43090;52.604;13.318;2023-11-21T04:42:34;22.13;;;9.85;;
57233;SDS011;43090;52.604;13.318;2023-11-21T04:45:05;18.20;;;9.48;;
57233;SDS011;43090;52.604;13.318;2023-11-21T04:47:36;22.25;;;10.05;;
57233;SDS011;43090;52.604;13.318;2023-11-21T04:50:04;20.23;;;10.05;;
57233;SDS011;43090;52.604;13.318;2023-11-21T04:52:32;17.70;;;8.88;;
57233;SDS011;43090;52.604;13.318;2023-11-21T04:55:02;19.48;;;8.80;;
57233;SDS011;43090;52.604;13.318;2023-11-21T04:57:32;15.85;;;8.73;;
57233;SDS011;43090;52.604;13.318;2023-11-21T04:59:59;16.63;;;8.23;;
57233;SDS011;43090;52.604;13.318;2023-11-21T05:02:26;18.98;;;8.93;;
57233;SDS011;43090;52.604;13.318;2023-11-21T05:05:01;18.70;;;8.77;;
57233;SDS011;43090;52.604;13.318;2023-11-21T05:07:32;16.48;;;8.20;;
57233;SDS011;43090;52.604;13.318;2023-11-21T05:10:03;15.50;;;8.48;;
57233;SDS011;43090;52.604;13.318;2023-11-21T05:12:41;17.00;;;7.82;;
57233;SDS011;43090;52.604;13.318;2023-11-21T05:15:11;18.42;;;8.15;;
57233;SDS011;43090;52.604;13.318;2023-11-21T05:17:42;17.17;;;8.52;;
57233;SDS011;43090;52.604;13.318;2023-11-21T05:20:14;18.75;;;9.43;;
57233;SDS011;43090;52.604;13.318;2023-11-21T05:23:07;19.25;;;8.80;;
57233;SDS011;43090;52.604;13.318;2023-11-21T05:25:34;18.75;;;8.10;;
57233;SDS011;43090;52.604;13.318;2023-11-21T05:28:06;16.08;;;7.72;;
57233;SDS011;43090;52.604;13.318;2023-11-21T05:30:35;18.52;;;8.75;;
57233;SDS011;43090;52.604;13.318;2023-11-21T05:33:03;30.23;;;9.27;;
57233;SDS011;43090;52.604;13.318;2023-11-21T05:35:29;18.88;;;9.13;;
57233;SDS011;43090;52.604;13.318;2023-11-21T05:37:59;18.23;;;8.32;;
57233;SDS011;43090;52.604;13.318;2023-11-21T05:40:36;16.60;;;8.57;;
57233;SDS011;43090;52.604;13.318;2023-11-21T05:43:07;17.35;;;8.90;;
57233;SDS011;43090;52.604;13.318;2023-11-21T05:45:33;15.32;;;7.85;;
57233;SDS011;43090;52.604;13.318;2023-11-21T05:48:01;15.48;;;8.38;;
57233;SDS011;43090;52.604;13.318;2023-11-21T05:50:35;19.60;;;8.88;;
57233;SDS011;43090;52.604;13.318;2023-11-21T05:53:18;11.68;;;6.28;;
57233;SDS011;43090;52.604;13.318;2023-11-21T05:55:45;19.83;;;8.05;;
57233;SDS011;43090;52.604;13.318;2023-11-21T05:58:12;11.73;;;6.28;;
57233;SDS011;43090;52.604;13.318;2023-11-21T06:00:40;13.57;;;6.80;;
57233;SDS011;43090;52.604;13.318;2023-11-21T06:03:26;14.30;;;6.93;;
57233;SDS011;43090;52.604;13.318;2023-11-21T06:06:09;16.42;;;6.68;;
57233;SDS011;43090;52.604;13.318;2023-11-21T06:08:38;15.38;;;6.80;;
57233;SDS011;43090;52.604;13.318;2023-11-21T06:14:27;13.10;;;6.57;;
57233;SDS011;43090;52.604;13.318;2023-11-21T06:19:24;13.77;;;6.82;;
57233;SDS011;43090;52.604;13.318;2023-11-21T06:24:17;10.52;;;5.47;;
57233;SDS011;43090;52.604;13.318;2023-11-21T06:26:44;12.65;;;6.38;;
57233;SDS011;43090;52.604;13.318;2023-11-21T06:29:11;13.68;;;5.82;;
57233;SDS011;43090;52.604;13.318;2023-11-21T06:31:37;10.57;;;5.53;;
57233;SDS011;43090;52.604;13.318;2023-11-21T06:34:06;9.40;;;4.82;;
57233;SDS011;43090;52.604;13.318;2023-11-21T06:56:39;8.00;;;4.55;;
57233;SDS011;43090;52.604;13.318;2023-11-21T07:01:32;8.05;;;4.78;;
57233;SDS011;43090;52.604;13.318;2023-11-21T07:53:39;8.23;;;4.10;;
57233;SDS011;43090;52.604;13.318;2023-11-21T07:56:10;7.97;;;4.40;;
57233;SDS011;43090;52.604;13.318;2023-11-21T07:58:37;7.25;;;4.07;;
57233;SDS011;43090;52.604;13.318;2023-11-21T08:01:04;7.70;;;4.07;;
57233;SDS011;43090;52.604;13.318;2023-11-21T08:03:31;7.82;;;3.67;;
57233;SDS011;43090;52.604;13.318;2023-11-21T08:06:00;7.90;;;4.32;;
57233;SDS011;43090;52.604;13.318;2023-11-21T08:08:41;6.63;;;3.55;;
57233;SDS011;43090;52.604;13.318;2023-11-21T08:11:59;6.65;;;4.07;;
57233;SDS011;43090;52.604;13.318;2023-11-21T08:15:49;7.75;;;4.28;;
57233;SDS011;43090;52.604;13.318;2023-11-21T08:22:35;11.32;;;4.85;;
57233;SDS011;43090;52.604;13.318;2023-11-21T08:25:51;8.48;;;4.70;;
57233;SDS011;43090;52.604;13.318;2023-11-21T08:43:36;8.20;;;3.72;;
57233;SDS011;43090;52.604;13.318;2023-11-21T08:46:08;6.13;;;3.55;;
57233;SDS011;43090;52.604;13.318;2023-11-21T08:51:46;6.85;;;3.83;;
57233;SDS011;43090;52.604;13.318;2023-11-21T08:54:43;13.68;;;3.83;;
57233;SDS011;43090;52.604;13.318;2023-11-21T08:57:31;7.50;;;4.15;;
57233;SDS011;43090;52.604;13.318;2023-11-21T09:00:14;5.50;;;3.17;;
57233;SDS011;43090;52.604;13.318;2023-11-21T09:03:08;7.50;;;3.83;;
57233;SDS011;43090;52.604;13.318;2023-11-21T09:06:30;7.65;;;3.30;;
57233;SDS011;43090;52.604;13.318;2023-11-21T09:09:00;8.32;;;4.40;;
57233;SDS011;43090;52.604;13.318;2023-11-21T09:15:53;6.97;;;3.30;;
57233;SDS011;43090;52.604;13.318;2023-11-21T09:18:41;9.93;;;3.90;;
57233;SDS011;43090;52.604;13.318;2023-11-21T09:25:07;9.90;;;4.00;;
57233;SDS011;43090;52.604;13.318;2023-11-21T09:27:42;16.55;;;4.60;;
57233;SDS011;43090;52.604;13.318;2023-11-21T09:30:35;6.95;;;3.30;;
57233;SDS011;43090;52.604;13.318;2023-11-21T09:33:03;11.20;;;4.28;;
57233;SDS011;43090;52.604;13.318;2023-11-21T09:43:07;13.20;;;4.57;;
57233;SDS011;43090;52.604;13.318;2023-11-21T09:46:06;10.73;;;4.88;;
57233;SDS011;43090;52.604;13.318;2023-11-21T09:48:45;10.80;;;5.07;;
57233;SDS011;43090;52.604;13.318;2023-11-21T09:51:44;9.45;;;4.57;;
57233;SDS011;43090;52.604;13.318;2023-11-21T09:54:13;12.85;;;5.40;;
57233;SDS011;43090;52.604;13.318;2023-11-21T09:57:40;12.85;;;4.85;;
57233;SDS011;43090;52.604;13.318;2023-11-21T10:07:32;10.98;;;5.03;;
57233;SDS011;43090;52.604;13.318;2023-11-21T10:10:01;13.50;;;5.72;;
57233;SDS011;43090;52.604;13.318;2023-11-21T10:12:40;13.27;;;5.60;;
57233;SDS011;43090;52.604;13.318;2023-11-21T10:15:15;16.70;;;6.32;;
57233;SDS011;43090;52.604;13.318;2023-11-21T10:17:48;12.48;;;5.30;;
57233;SDS011;43090;52.604;13.318;2023-11-21T10:20:18;13.73;;;5.85;;
57233;SDS011;43090;52.604;13.318;2023-11-21T10:22:54;13.75;;;6.30;;
57233;SDS011;43090;52.604;13.318;2023-11-21T10:25:23;17.85;;;7.50;;
57233;SDS011;43090;52.604;13.318;2023-11-21T10:27:59;13.32;;;5.70;;
57233;SDS011;43090;52.604;13.318;2023-11-21T10:40:42;15.85;;;7.25;;
57233;SDS011;43090;52.604;13.318;2023-11-21T10:43:19;15.55;;;6.25;;
57233;SDS011;43090;52.604;13.318;2023-11-21T10:46:00;18.35;;;7.72;;
57233;SDS011;43090;52.604;13.318;2023-11-21T10:48:30;19.40;;;6.38;;
57233;SDS011;43090;52.604;13.318;2023-11-21T10:50:58;17.98;;;7.35;;
57233;SDS011;43090;52.604;13.318;2023-11-21T10:57:06;20.45;;;6.70;;
57233;SDS011;43090;52.604;13.318;2023-11-21T10:59:39;15.32;;;6.03;;
57233;SDS011;43090;52.604;13.318;2023-11-21T11:10:09;15.07;;;6.90;;
57233;SDS011;43090;52.604;13.318;2023-11-21T11:17:28;19.13;;;6.20;;
57233;SDS011;43090;52.604;13.318;2023-11-21T11:20:11;17.02;;;6.38;;
57233;SDS011;43090;52.604;13.318;2023-11-21T11:24:05;14.30;;;6.07;;
57233;SDS011;43090;52.604;13.318;2023-11-21T11:47:35;9.07;;;4.05;;
57233;SDS011;43090;52.604;13.318;2023-11-21T11:50:05;9.82;;;4.35;;
57233;SDS011;43090;52.604;13.318;2023-11-21T11:52:40;11.95;;;4.28;;
57233;SDS011;43090;52.604;13.318;2023-11-21T11:55:12;12.25;;;4.60;;
57233;SDS011;43090;52.604;13.318;2023-11-21T11:57:54;9.68;;;4.57;;
57233;SDS011;43090;52.604;13.318;2023-11-21T12:03:00;16.70;;;5.43;;
57233;SDS011;43090;52.604;13.318;2023-11-21T12:05:31;12.77;;;5.90;;
57233;SDS011;43090;52.604;13.318;2023-11-21T12:08:02;16.10;;;4.90;;
57233;SDS011;43090;52.604;13.318;2023-11-21T12:13:29;11.70;;;4.97;;
57233;SDS011;43090;52.604;13.318;2023-11-21T12:15:59;9.85;;;4.57;;
57233;SDS011;43090;52.604;13.318;2023-11-21T12:18:25;12.15;;;5.13;;
57233;SDS011;43090;52.604;13.318;2023-11-21T12:20:58;14.40;;;5.15;;
57233;SDS011;43090;52.604;13.318;2023-11-21T12:23:25;11.35;;;4.90;;
57233;SDS011;43090;52.604;13.318;2023-11-21T12:25:55;10.52;;;4.75;;
57233;SDS011;43090;52.604;13.318;2023-11-21T12:28:24;8.35;;;4.03;;
57233;SDS011;43090;52.604;13.318;2023-11-21T12:31:11;8.05;;;4.22;;
57233;SDS011;43090;52.604;13.318;2023-11-21T12:34:49;12.15;;;4.13;;
57233;SDS011;43090;52.604;13.318;2023-11-21T12:37:20;13.13;;;5.13;;
57233;SDS011;43090;52.604;13.318;2023-11-21T12:40:04;11.10;;;4.47;;
57233;SDS011;43090;52.604;13.318;2023-11-21T12:43:18;14.50;;;5.85;;
57233;SDS011;43090;52.604;13.318;2023-11-21T12:46:03;15.65;;;6.88;;
57233;SDS011;43090;52.604;13.318;2023-11-21T12:48:53;17.10;;;6.90;;
57233;SDS011;43090;52.604;13.318;2023-11-21T12:51:54;11.73;;;6.53;;
57233;SDS011;43090;52.604;13.318;2023-11-21T12:54:21;15.27;;;6.93;;
57233;SDS011;43090;52.604;13.318;2023-11-21T12:56:49;13.75;;;5.93;;
57233;SDS011;43090;52.604;13.318;2023-11-21T12:59:16;17.58;;;7.07;;
57233;SDS011;43090;52.604;13.318;2023-11-21T13:02:07;13.75;;;7.82;;
57233;SDS011;43090;52.604;13.318;2023-11-21T13:04:44;13.40;;;6.63;;
57233;SDS011;43090;52.604;13.318;2023-11-21T13:07:19;12.00;;;7.05;;
57233;SDS011;43090;52.604;13.318;2023-11-21T13:09:46;20.45;;;8.00;;
57233;SDS011;43090;52.604;13.318;2023-11-21T13:12:16;20.10;;;8.93;;
57233;SDS011;43090;52.604;13.318;2023-11-21T13:15:28;20.70;;;9.35;;
57233;SDS011;43090;52.604;13.318;2023-11-21T13:22:36;30.48;;;11.88;;
57233;SDS011;43090;52.604;13.318;2023-11-21T13:25:39;34.97;;;13.65;;
57233;SDS011;43090;52.604;13.318;2023-11-21T13:28:34;38.40;;;14.02;;
57233;SDS011;43090;52.604;13.318;2023-11-21T13:35:15;52.35;;;16.33;;
57233;SDS011;43090;52.604;13.318;2023-11-21T13:38:02;41.65;;;16.33;;
57233;SDS011;43090;52.604;13.318;2023-11-21T13:41:06;47.08;;;16.48;;
57233;SDS011;43090;52.604;13.318;2023-11-21T13:43:39;41.42;;;15.88;;
57233;SDS011;43090;52.604;13.318;2023-11-21T13:55:55;47.92;;;16.92;;
57233;SDS011;43090;52.604;13.318;2023-11-21T13:58:52;45.80;;;16.90;;
57233;SDS011;43090;52.604;13.318;2023-11-21T14:01:31;47.35;;;18.08;;
57233;SDS011;43090;52.604;13.318;2023-11-21T14:04:20;51.42;;;17.42;;
57233;SDS011;43090;52.604;13.318;2023-11-21T14:07:05;52.70;;;17.98;;
57233;SDS011;43090;52.604;13.318;2023-11-21T14:10:01;52.00;;;17.27;;
57233;SDS011;43090;52.604;13.318;2023-11-21T14:12:31;48.25;;;18.98;;
57233;SDS011;43090;52.604;13.318;2023-11-21T14:15:26;43.08;;;17.65;;
57233;SDS011;43090;52.604;13.318;2023-11-21T14:18:34;50.65;;;19.27;;
57233;SDS011;43090;52.604;13.318;2023-11-21T14:21:38;59.08;;;21.00;;
57233;SDS011;43090;52.604;13.318;2023-11-21T14:24:44;46.80;;;19.10;;
57233;SDS011;43090;52.604;13.318;2023-11-21T14:31:11;40.67;;;16.40;;
57233;SDS011;43090;52.604;13.318;2023-11-21T14:33:43;39.47;;;16.52;;
57233;SDS011;43090;52.604;13.318;2023-11-21T14:52:27;24.45;;;11.35;;
57233;SDS011;43090;52.604;13.318;2023-11-21T14:55:56;21.57;;;11.17;;
57233;SDS011;43090;52.604;13.318;2023-11-21T15:02:26;24.60;;;12.27;;
57233;SDS011;43090;52.604;13.318;2023-11-21T15:05:42;22.30;;;11.43;;
57233;SDS011;43090;52.604;13.318;2023-11-21T15:08:09;27.85;;;13.68;;
57233;SDS011;43090;52.604;13.318;2023-11-21T15:10:52;27.17;;;13.90;;
57233;SDS011;43090;52.604;13.318;2023-11-21T15:13:20;38.28;;;15.43;;
57233;SDS011;43090;52.604;13.318;2023-11-21T15:15:51;29.60;;;14.43;;
57233;SDS011;43090;52.604;13.318;2023-11-21T15:18:21;28.58;;;14.77;;
57233;SDS011;43090;52.604;13.318;2023-11-21T15:20:48;37.13;;;16.08;;
57233;SDS011;43090;52.604;13.318;2023-11-21T15:25:44;35.42;;;16.10;;
57233;SDS011;43090;52.604;13.318;2023-11-21T15:28:14;38.67;;;16.50;;
57233;SDS011;43090;52.604;13.318;2023-11-21T15:30:41;30.95;;;14.73;;
57233;SDS011;43090;52.604;13.318;2023-11-21T15:33:08;28.85;;;15.40;;
57233;SDS011;43090;52.604;13.318;2023-11-21T15:35:37;31.45;;;14.98;;
57233;SDS011;43090;52.604;13.318;2023-11-21T15:38:10;34.78;;;17.40;;
57233;SDS011;43090;52.604;13.318;2023-11-21T15:40:39;30.90;;;13.77;;
57233;SDS011;43090;52.604;13.318;2023-11-21T15:43:06;25.73;;;12.45;;
57233;SDS011;43090;52.604;13.318;2023-11-21T15:45:33;29.20;;;12.52;;
57233;SDS011;43090;52.604;13.318;2023-11-21T15:55:28;25.13;;;11.38;;
57233;SDS011;43090;52.604;13.318;2023-11-21T15:58:07;27.33;;;13.40;;
57233;SDS011;43090;52.604;13.318;2023-11-21T16:00:43;28.35;;;12.25;;
57233;SDS011;43090;52.604;13.318;2023-11-21T16:03:18;20.80;;;11.45;;
57233;SDS011;43090;52.604;13.318;2023-11-21T16:05:45;25.98;;;11.80;;
57233;SDS011;43090;52.604;13.318;2023-11-21T16:08:12;21.23;;;11.48;;
57233;SDS011;43090;52.604;13.318;2023-11-21T16:10:42;24.17;;;12.00;;
57233;SDS011;43090;52.604;13.318;2023-11-21T16:13:09;22.60;;;11.20;;
57233;SDS011;43090;52.604;13.318;2023-11-21T16:21:47;21.20;;;10.50;;
57233;SDS011;43090;52.604;13.318;2023-11-21T16:24:14;19.33;;;9.98;;
57233;SDS011;43090;52.604;13.318;2023-11-21T16:26:44;23.58;;;10.05;;
57233;SDS011;43090;52.604;13.318;2023-11-21T16:29:12;17.33;;;9.48;;
57233;SDS011;43090;52.604;13.318;2023-11-21T16:31:39;21.27;;;9.00;;
57233;SDS011;43090;52.604;13.318;2023-11-21T16:41:26;18.38;;;8.43;;
57233;SDS011;43090;52.604;13.318;2023-11-21T16:43:55;17.30;;;8.50;;
57233;SDS011;43090;52.604;13.318;2023-11-21T16:46:21;19.00;;;9.18;;
57233;SDS011;43090;52.604;13.318;2023-11-21T16:51:18;21.48;;;8.02;;
57233;SDS011;43090;52.604;13.318;2023-11-21T16:53:45;18.77;;;8.65;;
57233;SDS011;43090;52.604;13.318;2023-11-21T16:57:24;23.77;;;9.65;;
57233;SDS011;43090;52.604;13.318;2023-11-21T16:59:51;20.40;;;9.02;;
57233;SDS011;43090;52.604;13.318;2023-11-21T17:02:18;22.88;;;9.15;;
57233;SDS011;43090;52.604;13.318;2023-11-21T17:04:45;18.65;;;9.20;;
57233;SDS011;43090;52.604;13.318;2023-11-21T17:10:46;25.27;;;9.68;;
57233;SDS011;43090;52.604;13.318;2023-11-21T17:13:15;22.58;;;8.95;;
57233;SDS011;43090;52.604;13.318;2023-11-21T17:15:45;24.08;;;10.75;;
57233;SDS011;43090;52.604;13.318;2023-11-21T17:25:54;17.67;;;8.57;;
57233;SDS011;43090;52.604;13.318;2023-11-21T17:28:28;20.40;;;9.23;;
57233;SDS011;43090;52.604;13.318;2023-11-21T17:30:58;17.25;;;9.10;;
57233;SDS011;43090;52.604;13.318;2023-11-21T17:33:25;20.75;;;9.13;;
57233;SDS011;43090;52.604;13.318;2023-11-21T17:35:51;18.17;;;9.20;;
57233;SDS011;43090;52.604;13.318;2023-11-21T17:38:32;22.88;;;9.38;;
57233;SDS011;43090;52.604;13.318;2023-11-21T17:43:25;15.88;;;8.15;;
57233;SDS011;43090;52.604;13.318;2023-11-21T17:45:52;21.23;;;10.00;;
57233;SDS011;43090;52.604;13.318;2023-11-21T17:48:18;19.98;;;8.32;;
57233;SDS011;43090;52.604;13.318;2023-11-21T17:50:45;16.85;;;8.50;;
57233;SDS011;43090;52.604;13.318;2023-11-21T17:53:12;18.15;;;8.65;;
57233;SDS011;43090;52.604;13.318;2023-11-21T17:55:40;16.27;;;8.55;;
57233;SDS011;43090;52.604;13.318;2023-11-21T18:00:35;20.67;;;9.23;;
57233;SDS011;43090;52.604;13.318;2023-11-21T18:03:02;19.17;;;9.55;;
57233;SDS011;43090;52.604;13.318;2023-11-21T18:05:30;23.27;;;9.10;;
57233;SDS011;43090;52.604;13.318;2023-11-21T18:07:57;26.80;;;9.75;;
57233;SDS011;43090;52.604;13.318;2023-11-21T18:10:23;15.85;;;8.32;;
57233;SDS011;43090;52.604;13.318;2023-11-21T18:15:17;17.00;;;8.45;;
57233;SDS011;43090;52.604;13.318;2023-11-21T18:17:44;20.20;;;8.13;;
57233;SDS011;43090;52.604;13.318;2023-11-21T18:20:11;17.98;;;8.75;;
57233;SDS011;43090;52.604;13.318;2023-11-21T18:22:38;18.27;;;7.60;;
57233;SDS011;43090;52.604;13.318;2023-11-21T18:27:31;20.15;;;7.93;;
57233;SDS011;43090;52.604;13.318;2023-11-21T18:32:25;19.48;;;8.25;;
57233;SDS011;43090;52.604;13.318;2023-11-21T18:34:54;17.08;;;7.82;;
57233;SDS011;43090;52.604;13.318;2023-11-21T18:37:22;16.38;;;7.55;;
57233;SDS011;43090;52.604;13.318;2023-11-21T18:39:52;17.30;;;7.70;;
57233;SDS011;43090;52.604;13.318;2023-11-21T18:42:19;15.73;;;7.35;;
57233;SDS011;43090;52.604;13.318;2023-11-21T18:44:48;17.67;;;7.40;;
57233;SDS011;43090;52.604;13.318;2023-11-21T18:47:24;16.10;;;7.57;;
57233;SDS011;43090;52.604;13.318;2023-11-21T18:49:51;15.70;;;7.60;;
57233;SDS011;43090;52.604;13.318;2023-11-21T18:52:18;17.65;;;8.95;;
57233;SDS011;43090;52.604;13.318;2023-11-21T18:59:39;15.15;;;7.43;;
57233;SDS011;43090;52.604;13.318;2023-11-21T19:02:07;20.27;;;7.57;;
57233;SDS011;43090;52.604;13.318;2023-11-21T19:04:42;15.13;;;7.40;;
57233;SDS011;43090;52.604;13.318;2023-11-21T19:07:12;17.27;;;8.20;;
57233;SDS011;43090;52.604;13.318;2023-11-21T19:09:40;14.90;;;7.15;;
57233;SDS011;43090;52.604;13.318;2023-11-21T19:12:07;11.43;;;6.53;;
57233;SDS011;43090;52.604;13.318;2023-11-21T19:14:34;16.25;;;7.72;;
57233;SDS011;43090;52.604;13.318;2023-11-21T19:17:01;17.10;;;7.88;;
57233;SDS011;43090;52.604;13.318;2023-11-21T19:19:29;20.85;;;9.23;;
57233;SDS011;43090;52.604;13.318;2023-11-21T19:24:25;16.50;;;7.57;;
57233;SDS011;43090;52.604;13.318;2023-11-21T19:26:55;20.20;;;8.98;;
57233;SDS011;43090;52.604;13.318;2023-11-21T19:29:24;14.75;;;7.93;;
57233;SDS011;43090;52.604;13.318;2023-11-21T22:17:04;10.32;;;5.07;;
57233;SDS011;43090;52.604;13.318;2023-11-21T22:20:28;11.27;;;5.32;;
57233;SDS011;43090;52.604;13.318;2023-11-21T22:31:10;10.77;;;4.97;;
57233;SDS011;43090;52.604;13.318;2023-11-21T22:35:03;9.40;;;4.70;;
57233;SDS011;43090;52.604;13.318;2023-11-21T22:45:53;10.73;;;5.10;;
57233;SDS011;43090;52.604;13.318;2023-11-21T22:48:20;12.45;;;4.90;;
57233;SDS011;43090;52.604;13.318;2023-11-21T22:53:13;10.15;;;4.63;;
57233;SDS011;43090;52.604;13.318;2023-11-21T22:55:40;11.25;;;4.85;;
57233;SDS011;43090;52.604;13.318;2023-11-21T23:00:33;11.70;;;4.78;;
57233;SDS011;43090;52.604;13.318;2023-11-21T23:05:27;11.85;;;4.78;;
57233;SDS011;43090;52.604;13.318;2023-11-21T23:10:23;9.70;;;4.57;;
57233;SDS011;43090;52.604;13.318;2023-11-21T23:12:53;9.00;;;4.38;;